Terminal Aerodrome Forecast
Issued by NWS

Home | Current Version | Previous Version | Text Only | Print | Product List | Glossary On
Versions: 1 2 3 4 5 6 7 8 9 10 11 12 13 14 15 16 17 18 19 20 21 22 23 24
000
FTUS46 KSEW 180000 AAA
TAFPAE
TAF AMD
KPAE 180013Z 1800/1824 19017KT 6SM -RA BR BKN015 OVC035
     FM180100 19017G25KT 4SM SHRA BKN015 OVC030
     FM180200 22010KT P6SM -SHRA SCT009 OVC015
     FM180400 33010KT 4SM SHRA BKN009 OVC012
     FM180600 VRB04KT 2SM -SHRA BR OVC006
     FM181500 19006KT 5SM -SHRA BR BKN011 OVC030
     FM181800 25006KT P6SM SCT030 BKN050=

USA.gov is the U.S. government's official web portal to all federal, state and local government web resources and services.